map of QRT home
QRT - Airport
Location
City:  Rieti, Lazio, Italy
ICAO:LIQN
IATA:QRT

Details
Type:Airport (Aerodrome, Airfield)
Latitude:4226'N (42.433)
Longitude:1251'E (12.850)
Elevation:1276 ft (389 m)
Variation:3.39E (WMM2015v2 magnetic declination)
0.14 annual change
Runways:unknown number
Longest:2723 ft (830 m)

Time
Time Zone:UTC+1 (DST+2)
Local Time:

Weather
METAR:LIQN 041350Z 14010KT 110V180 CAVOK 12/03 Q1016

Related Locations
Nearby:
Farthest:CHT: 11961 mi / 19249 km
Waitangi [Tuuta], CIT, NZ

Find:

   beyond  
but within

Other Information
Maps:
NOTAMs:
Links:
Sources:

  
  • flag of Italy
  • flag of Lazio
  

Sectional Chart

Flight Planning
at skyvector.com

Satellite Image

Google Maps Satellite view

 

Copyright © 2004-2019 Karl L. Swartz. All rights reserved.
The Great Circle Mapper name and logo are trademarks of the Great Circle Mapper.
All other trademarks mentioned herein belong to their respective owners.
Please see credits for attibutions and further copyright information.

  Follow gcmap on Facebook Follow gcmap on Twitter GCmap on LinkedIn

hCard Microformat

Geo Microformat